sensor_id;sensor_type;location;lat;lon;timestamp;P1;durP1;ratioP1;P2;durP2;ratioP2
10381;SDS011;11635;53.636;10.120;2023-05-07T04:02:33;9.30;;;8.18;;
10381;SDS011;11635;53.636;10.120;2023-05-07T04:05:00;11.52;;;10.27;;
10381;SDS011;11635;53.636;10.120;2023-05-07T04:07:26;10.98;;;9.50;;
10381;SDS011;11635;53.636;10.120;2023-05-07T04:09:53;13.07;;;10.25;;
10381;SDS011;11635;53.636;10.120;2023-05-07T04:12:19;10.25;;;8.65;;
10381;SDS011;11635;53.636;10.120;2023-05-07T04:14:45;12.05;;;9.57;;
10381;SDS011;11635;53.636;10.120;2023-05-07T04:17:12;11.52;;;9.32;;
10381;SDS011;11635;53.636;10.120;2023-05-07T04:19:39;11.18;;;9.45;;
10381;SDS011;11635;53.636;10.120;2023-05-07T04:22:10;12.18;;;8.93;;
10381;SDS011;11635;53.636;10.120;2023-05-07T04:24:36;13.82;;;9.57;;
10381;SDS011;11635;53.636;10.120;2023-05-07T04:27:03;10.82;;;8.82;;
10381;SDS011;11635;53.636;10.120;2023-05-07T04:29:29;9.70;;;8.27;;
10381;SDS011;11635;53.636;10.120;2023-05-07T04:31:56;10.68;;;8.43;;
10381;SDS011;11635;53.636;10.120;2023-05-07T04:34:23;9.30;;;8.23;;
10381;SDS011;11635;53.636;10.120;2023-05-07T04:36:51;10.50;;;8.40;;
10381;SDS011;11635;53.636;10.120;2023-05-07T04:39:18;11.70;;;8.68;;
10381;SDS011;11635;53.636;10.120;2023-05-07T04:41:44;13.05;;;7.90;;
10381;SDS011;11635;53.636;10.120;2023-05-07T04:44:10;9.60;;;8.00;;
10381;SDS011;11635;53.636;10.120;2023-05-07T04:46:37;11.52;;;7.97;;
10381;SDS011;11635;53.636;10.120;2023-05-07T04:49:03;10.05;;;7.82;;
10381;SDS011;11635;53.636;10.120;2023-05-07T05:08:35;9.57;;;7.93;;
10381;SDS011;11635;53.636;10.120;2023-05-07T05:11:02;8.60;;;7.40;;
10381;SDS011;11635;53.636;10.120;2023-05-07T05:28:07;10.07;;;7.28;;
10381;SDS011;11635;53.636;10.120;2023-05-07T05:30:33;8.60;;;7.18;;
10381;SDS011;11635;53.636;10.120;2023-05-07T05:33:00;11.48;;;8.05;;
10381;SDS011;11635;53.636;10.120;2023-05-07T05:35:26;8.27;;;7.32;;
10381;SDS011;11635;53.636;10.120;2023-05-07T05:37:53;8.50;;;7.60;;
10381;SDS011;11635;53.636;10.120;2023-05-07T05:40:19;8.80;;;7.40;;
10381;SDS011;11635;53.636;10.120;2023-05-07T05:42:45;7.90;;;7.03;;
10381;SDS011;11635;53.636;10.120;2023-05-07T05:45:13;9.45;;;7.53;;
10381;SDS011;11635;53.636;10.120;2023-05-07T05:47:40;9.50;;;7.18;;
10381;SDS011;11635;53.636;10.120;2023-05-07T05:50:07;8.50;;;7.57;;
10381;SDS011;11635;53.636;10.120;2023-05-07T05:52:34;9.73;;;7.97;;
10381;SDS011;11635;53.636;10.120;2023-05-07T05:55:00;8.07;;;7.28;;
10381;SDS011;11635;53.636;10.120;2023-05-07T05:57:26;9.35;;;7.03;;
10381;SDS011;11635;53.636;10.120;2023-05-07T05:59:53;9.45;;;7.35;;
10381;SDS011;11635;53.636;10.120;2023-05-07T06:02:21;7.90;;;7.10;;
10381;SDS011;11635;53.636;10.120;2023-05-07T06:04:47;9.93;;;7.28;;
10381;SDS011;11635;53.636;10.120;2023-05-07T06:19:26;8.10;;;7.30;;
10381;SDS011;11635;53.636;10.120;2023-05-07T06:34:04;8.85;;;7.22;;
10381;SDS011;11635;53.636;10.120;2023-05-07T06:36:32;7.70;;;6.80;;
10381;SDS011;11635;53.636;10.120;2023-05-07T06:38:58;7.20;;;6.45;;
10381;SDS011;11635;53.636;10.120;2023-05-07T06:41:24;7.53;;;6.30;;
10381;SDS011;11635;53.636;10.120;2023-05-07T06:43:51;8.07;;;6.60;;
10381;SDS011;11635;53.636;10.120;2023-05-07T06:46:18;8.55;;;6.82;;
10381;SDS011;11635;53.636;10.120;2023-05-07T06:48:44;8.32;;;6.60;;
10381;SDS011;11635;53.636;10.120;2023-05-07T06:51:10;8.38;;;7.28;;
10381;SDS011;11635;53.636;10.120;2023-05-07T06:53:38;7.07;;;6.38;;
10381;SDS011;11635;53.636;10.120;2023-05-07T06:56:05;7.03;;;6.13;;
10381;SDS011;11635;53.636;10.120;2023-05-07T06:58:32;11.48;;;6.28;;
10381;SDS011;11635;53.636;10.120;2023-05-07T07:00:58;8.23;;;6.22;;
10381;SDS011;11635;53.636;10.120;2023-05-07T07:03:25;7.93;;;6.03;;
10381;SDS011;11635;53.636;10.120;2023-05-07T07:05:51;6.97;;;6.03;;
10381;SDS011;11635;53.636;10.120;2023-05-07T07:08:18;6.18;;;5.57;;
10381;SDS011;11635;53.636;10.120;2023-05-07T07:10:47;7.53;;;5.95;;
10381;SDS011;11635;53.636;10.120;2023-05-07T07:13:13;6.18;;;5.40;;
10381;SDS011;11635;53.636;10.120;2023-05-07T07:15:40;6.28;;;5.68;;
10381;SDS011;11635;53.636;10.120;2023-05-07T07:18:06;6.40;;;5.72;;
10381;SDS011;11635;53.636;10.120;2023-05-07T07:20:33;6.18;;;5.57;;
10381;SDS011;11635;53.636;10.120;2023-05-07T07:22:59;6.97;;;5.70;;
10381;SDS011;11635;53.636;10.120;2023-05-07T07:25:26;8.05;;;5.97;;
10381;SDS011;11635;53.636;10.120;2023-05-07T07:27:53;6.97;;;6.03;;
10381;SDS011;11635;53.636;10.120;2023-05-07T07:30:20;7.90;;;5.55;;
10381;SDS011;11635;53.636;10.120;2023-05-07T07:32:46;6.68;;;5.97;;
10381;SDS011;11635;53.636;10.120;2023-05-07T07:35:12;6.13;;;5.53;;
10381;SDS011;11635;53.636;10.120;2023-05-07T07:37:39;6.72;;;5.93;;
10381;SDS011;11635;53.636;10.120;2023-05-07T07:40:06;6.40;;;5.80;;
10381;SDS011;11635;53.636;10.120;2023-05-07T07:42:32;6.65;;;6.00;;
10381;SDS011;11635;53.636;10.120;2023-05-07T07:45:00;6.32;;;5.47;;
10381;SDS011;11635;53.636;10.120;2023-05-07T07:47:26;6.25;;;5.60;;
10381;SDS011;11635;53.636;10.120;2023-05-07T07:49:53;7.72;;;5.72;;
